createdAt,value
2022-11-13T00:00:17.881Z,2.80
2022-11-13T00:01:17.797Z,2.77
2022-11-13T00:02:17.752Z,2.63
2022-11-13T00:03:17.625Z,2.78
2022-11-13T00:04:17.540Z,2.78
2022-11-13T00:05:17.464Z,2.78
2022-11-13T00:06:17.380Z,2.75
2022-11-13T00:07:17.355Z,2.85
2022-11-13T00:08:17.205Z,2.81
2022-11-13T00:09:17.126Z,2.77
2022-11-13T00:10:17.034Z,2.80
2022-11-13T00:11:16.948Z,2.81
2022-11-13T00:12:16.865Z,2.77
2022-11-13T00:13:16.785Z,2.77
2022-11-13T00:14:16.791Z,2.78
2022-11-13T00:15:16.612Z,2.66
2022-11-13T00:16:16.528Z,2.73
2022-11-13T00:17:16.441Z,2.68
2022-11-13T00:18:16.355Z,2.68
2022-11-13T00:19:16.272Z,2.62
2022-11-13T00:20:16.186Z,2.70
2022-11-13T00:21:16.100Z,2.70
2022-11-13T00:22:16.013Z,2.67
2022-11-13T00:23:15.936Z,2.67
2022-11-13T00:24:15.848Z,2.63
2022-11-13T00:25:15.761Z,2.63
2022-11-13T00:26:15.679Z,2.63
2022-11-13T00:27:15.594Z,2.67
2022-11-13T00:28:15.506Z,2.59
2022-11-13T00:29:15.420Z,2.57
2022-11-13T00:30:19.279Z,2.60
2022-11-13T00:31:15.255Z,2.52
2022-11-13T00:32:15.168Z,2.57
2022-11-13T00:33:26.515Z,2.52
2022-11-13T00:34:41.032Z,2.53
2022-11-13T00:35:14.914Z,2.48
2022-11-13T00:36:14.824Z,2.53
2022-11-13T00:37:14.744Z,2.57
2022-11-13T00:38:14.657Z,2.55
2022-11-13T00:39:14.573Z,2.50
2022-11-13T00:40:14.487Z,2.52
2022-11-13T00:41:14.401Z,2.53
2022-11-13T00:42:14.322Z,2.57
2022-11-13T00:43:14.235Z,2.49
2022-11-13T00:44:14.150Z,2.56
2022-11-13T00:45:14.065Z,2.49
2022-11-13T00:46:14.081Z,2.49
2022-11-13T00:47:13.893Z,2.39
2022-11-13T00:48:13.806Z,2.52
2022-11-13T00:49:13.720Z,2.37
2022-11-13T00:50:13.636Z,2.46
2022-11-13T00:51:13.555Z,2.46
2022-11-13T00:52:13.470Z,2.35
2022-11-13T00:53:17.908Z,2.30
2022-11-13T00:54:13.297Z,2.35
2022-11-13T00:55:13.215Z,2.39
2022-11-13T00:56:13.128Z,2.32
2022-11-13T00:57:13.057Z,2.44
2022-11-13T00:58:12.958Z,2.31
2022-11-13T00:59:12.874Z,2.38
2022-11-13T01:00:12.786Z,2.31
2022-11-13T01:01:12.817Z,2.31
2022-11-13T01:02:12.715Z,2.31
2022-11-13T01:03:12.530Z,2.34
2022-11-13T01:04:12.446Z,2.30
2022-11-13T01:05:12.364Z,2.26
2022-11-13T01:06:12.278Z,2.23
2022-11-13T01:07:12.260Z,2.28
2022-11-13T01:08:12.111Z,2.26
2022-11-13T01:09:12.026Z,2.26
2022-11-13T01:10:11.961Z,2.20
2022-11-13T01:11:11.856Z,2.21
2022-11-13T01:12:11.785Z,2.23
2022-11-13T01:13:11.679Z,2.16
2022-11-13T01:14:11.595Z,2.16
2022-11-13T01:15:11.511Z,2.19
2022-11-13T01:16:11.428Z,2.23
2022-11-13T01:17:11.343Z,2.16
2022-11-13T01:18:11.349Z,2.24
2022-11-13T01:19:11.170Z,2.19
2022-11-13T01:20:11.089Z,2.14
2022-11-13T01:21:11.004Z,2.20
2022-11-13T01:22:10.914Z,2.09
2022-11-13T01:23:10.833Z,2.14
2022-11-13T01:24:10.744Z,2.17
2022-11-13T01:25:10.662Z,2.14
2022-11-13T01:26:10.573Z,2.12
2022-11-13T01:27:10.489Z,2.10
2022-11-13T01:28:10.410Z,2.14
2022-11-13T01:29:10.321Z,2.12
2022-11-13T01:30:10.250Z,2.14
2022-11-13T01:31:10.147Z,2.12
2022-11-13T01:32:10.061Z,2.13
2022-11-13T01:33:09.984Z,2.03
2022-11-13T01:34:09.990Z,2.14
2022-11-13T01:35:09.807Z,2.14
2022-11-13T01:36:09.728Z,2.05
2022-11-13T01:37:09.638Z,2.13
2022-11-13T01:38:09.555Z,2.06
2022-11-13T01:39:09.466Z,1.94
2022-11-13T01:40:09.444Z,2.02
2022-11-13T01:41:09.300Z,2.01
2022-11-13T01:42:09.209Z,1.99
2022-11-13T01:43:09.129Z,1.95
2022-11-13T01:44:09.044Z,2.01
2022-11-13T01:45:08.953Z,1.95
2022-11-13T01:46:08.870Z,1.94
2022-11-13T01:47:08.793Z,2.01
2022-11-13T01:48:08.701Z,1.94
2022-11-13T01:49:08.616Z,1.86
2022-11-13T01:50:08.624Z,1.87
2022-11-13T01:51:08.450Z,2.01
2022-11-13T01:52:08.361Z,1.84
2022-11-13T01:53:08.273Z,1.92
2022-11-13T01:54:08.189Z,1.86
2022-11-13T01:55:08.106Z,1.90
2022-11-13T01:56:08.014Z,1.83
2022-11-13T01:57:07.933Z,1.87
2022-11-13T01:58:07.846Z,1.87
2022-11-13T01:59:07.764Z,1.86
2022-11-13T02:00:07.677Z,1.82
2022-11-13T02:01:07.591Z,1.82
2022-11-13T02:02:07.528Z,1.83
2022-11-13T02:03:07.429Z,1.80
2022-11-13T02:04:07.355Z,1.82
2022-11-13T02:05:07.248Z,1.84
2022-11-13T02:06:07.262Z,1.80
2022-11-13T02:07:07.143Z,1.80
2022-11-13T02:08:06.998Z,1.79
2022-11-13T02:09:06.911Z,1.80
2022-11-13T02:10:06.821Z,1.84
2022-11-13T02:11:06.740Z,1.87
2022-11-13T02:12:06.652Z,1.84
2022-11-13T02:13:06.563Z,1.84
2022-11-13T02:14:06.485Z,1.84
2022-11-13T02:15:06.397Z,1.86
2022-11-13T02:16:06.311Z,1.91
2022-11-13T02:17:06.222Z,1.84
2022-11-13T02:18:06.147Z,1.84
2022-11-13T02:19:06.050Z,1.86
2022-11-13T02:20:05.969Z,1.91
2022-11-13T02:21:05.885Z,1.87
2022-11-13T02:22:05.893Z,1.86
2022-11-13T02:23:05.708Z,1.84
2022-11-13T02:24:05.624Z,1.83
2022-11-13T02:25:05.538Z,1.77
2022-11-13T02:26:05.453Z,1.77
2022-11-13T02:27:05.368Z,1.84
2022-11-13T02:28:05.287Z,1.77
2022-11-13T02:29:05.195Z,1.73
2022-11-13T02:30:07.431Z,1.62
2022-11-13T02:31:05.029Z,1.61
2022-11-13T02:32:04.947Z,1.59
2022-11-13T02:33:04.855Z,1.61
2022-11-13T02:34:04.772Z,1.56
2022-11-13T02:35:04.686Z,1.59
2022-11-13T02:36:04.604Z,1.52
2022-11-13T02:37:04.511Z,1.56
2022-11-13T02:38:04.528Z,1.56
2022-11-13T02:39:04.344Z,1.48
2022-11-13T02:40:04.259Z,1.46
2022-11-13T02:41:04.171Z,1.48
2022-11-13T02:42:04.089Z,1.54
2022-11-13T02:43:03.999Z,1.46
2022-11-13T02:44:03.914Z,1.50
2022-11-13T02:45:03.833Z,1.50
2022-11-13T02:46:03.747Z,1.65
2022-11-13T02:47:03.658Z,1.61
2022-11-13T02:48:03.572Z,1.54
2022-11-13T02:49:03.491Z,1.52
2022-11-13T02:50:03.400Z,1.54
2022-11-13T02:51:03.318Z,1.52
2022-11-13T02:52:03.230Z,1.48
2022-11-13T02:53:03.147Z,1.52
2022-11-13T02:54:03.155Z,1.44
2022-11-13T02:55:02.971Z,1.54
2022-11-13T02:56:02.892Z,1.52
2022-11-13T02:57:02.806Z,1.50
2022-11-13T02:58:02.724Z,1.47
2022-11-13T02:59:02.631Z,1.55
2022-11-13T03:00:02.548Z,1.50
2022-11-13T03:01:02.460Z,1.48
2022-11-13T03:02:02.414Z,1.38
2022-11-13T03:03:02.300Z,1.48
2022-11-13T03:04:02.207Z,1.43
2022-11-13T03:05:17.318Z,1.46
2022-11-13T03:06:02.031Z,1.38
2022-11-13T03:07:02.016Z,1.37
2022-11-13T03:08:01.861Z,1.26
2022-11-13T03:09:01.784Z,1.41
2022-11-13T03:10:01.790Z,1.34
2022-11-13T03:11:01.607Z,1.36
2022-11-13T03:12:01.520Z,1.29
2022-11-13T03:13:01.434Z,1.32
2022-11-13T03:14:01.365Z,1.26
2022-11-13T03:15:01.259Z,1.32
2022-11-13T03:16:01.178Z,1.26
2022-11-13T03:17:01.088Z,1.28
2022-11-13T03:18:01.007Z,1.34
2022-11-13T03:19:00.923Z,1.26
2022-11-13T03:20:00.832Z,1.34
2022-11-13T03:21:00.745Z,1.38
2022-11-13T03:22:00.661Z,1.34
2022-11-13T03:23:00.615Z,1.34
2022-11-13T03:24:00.492Z,1.30
2022-11-13T03:25:00.406Z,1.36
2022-11-13T03:26:00.421Z,1.34
2022-11-13T03:27:00.240Z,1.38
2022-11-13T03:28:00.148Z,1.37
2022-11-13T03:29:00.058Z,1.29
2022-11-13T03:29:59.981Z,1.26
2022-11-13T03:30:59.888Z,1.26
2022-11-13T03:31:59.802Z,1.22
2022-11-13T03:32:59.722Z,1.25
2022-11-13T03:33:59.634Z,1.15
2022-11-13T03:34:59.550Z,1.18
2022-11-13T03:35:59.463Z,1.25
2022-11-13T03:36:59.374Z,1.25
2022-11-13T03:37:59.295Z,1.25
2022-11-13T03:38:59.200Z,1.25
2022-11-13T03:39:59.118Z,1.25
2022-11-13T03:40:59.031Z,1.20
2022-11-13T03:41:59.042Z,1.28
2022-11-13T03:42:58.857Z,1.23
2022-11-13T03:43:58.773Z,1.25
2022-11-13T03:44:58.690Z,1.18
2022-11-13T03:45:58.603Z,1.19
2022-11-13T03:46:58.514Z,1.23
2022-11-13T03:47:58.439Z,1.20
2022-11-13T03:48:58.343Z,1.23
2022-11-13T03:49:58.261Z,1.18
2022-11-13T03:50:58.176Z,1.11
2022-11-13T03:51:58.093Z,1.18
2022-11-13T03:52:57.998Z,1.19
2022-11-13T03:53:57.919Z,1.22
2022-11-13T03:54:57.828Z,1.19
2022-11-13T03:55:57.749Z,1.19
2022-11-13T03:56:57.657Z,1.11
2022-11-13T03:57:57.665Z,1.18
2022-11-13T03:58:57.484Z,1.15
2022-11-13T03:59:57.401Z,1.02
2022-11-13T04:00:57.315Z,1.11
2022-11-13T04:01:57.260Z,1.15
2022-11-13T04:02:57.144Z,1.16
2022-11-13T04:03:57.058Z,1.18
2022-11-13T04:04:56.972Z,1.16
2022-11-13T04:05:56.885Z,1.05
2022-11-13T04:06:56.823Z,1.01
2022-11-13T04:07:56.713Z,0.98
2022-11-13T04:08:56.626Z,1.05
2022-11-13T04:09:56.539Z,1.07
2022-11-13T04:10:56.453Z,1.04
2022-11-13T04:11:56.371Z,0.93
2022-11-13T04:12:56.285Z,0.98
2022-11-13T04:13:56.298Z,0.98
2022-11-13T04:14:56.109Z,0.94
2022-11-13T04:15:56.028Z,1.05
2022-11-13T04:16:55.941Z,0.93
2022-11-13T04:17:55.856Z,0.93
2022-11-13T04:18:55.769Z,0.82
2022-11-13T04:19:55.687Z,0.83
2022-11-13T04:20:55.594Z,0.72
2022-11-13T04:21:55.510Z,0.79
2022-11-13T04:22:55.429Z,0.75
2022-11-13T04:23:55.338Z,0.77
2022-11-13T04:24:55.253Z,0.90
2022-11-13T04:25:55.169Z,0.82
2022-11-13T04:26:55.078Z,0.89
2022-11-13T04:27:54.993Z,0.83
2022-11-13T04:28:54.917Z,0.86
2022-11-13T04:29:54.922Z,0.98
2022-11-13T04:30:54.742Z,0.92
2022-11-13T04:31:54.649Z,0.98
2022-11-13T04:32:54.563Z,0.87
2022-11-13T04:33:54.484Z,1.00
2022-11-13T04:34:54.393Z,0.86
2022-11-13T04:35:54.308Z,0.94
2022-11-13T04:36:54.220Z,1.00
2022-11-13T04:37:54.133Z,0.92
2022-11-13T04:38:54.049Z,0.94
2022-11-13T04:39:53.964Z,0.94
2022-11-13T04:40:53.874Z,0.97
2022-11-13T04:41:55.547Z,1.00
2022-11-13T04:42:53.710Z,0.97
2022-11-13T04:43:53.625Z,1.00
2022-11-13T04:44:53.528Z,0.94
2022-11-13T04:45:53.542Z,0.92
2022-11-13T04:46:53.363Z,0.97
2022-11-13T04:47:53.275Z,0.97
2022-11-13T04:48:53.184Z,0.92
2022-11-13T04:49:53.102Z,0.90
2022-11-13T04:50:53.016Z,0.92
2022-11-13T04:51:52.933Z,1.01
2022-11-13T04:52:52.842Z,0.89
2022-11-13T04:53:52.762Z,0.87
2022-11-13T04:54:52.669Z,0.77
2022-11-13T04:55:52.589Z,0.75
2022-11-13T04:56:52.501Z,0.59
2022-11-13T04:57:52.413Z,0.66
2022-11-13T04:58:52.327Z,0.68
2022-11-13T04:59:52.245Z,0.68
2022-11-13T05:00:52.156Z,0.68
2022-11-13T05:01:52.202Z,0.65
2022-11-13T05:02:51.987Z,0.61
2022-11-13T05:03:51.900Z,0.71
2022-11-13T05:04:51.810Z,0.66
2022-11-13T05:05:51.722Z,0.64
2022-11-13T05:06:51.672Z,0.71
2022-11-13T05:07:51.552Z,0.71
2022-11-13T05:08:51.467Z,0.74
2022-11-13T05:09:51.382Z,0.77
2022-11-13T05:10:51.291Z,0.74
2022-11-13T05:11:51.206Z,0.65
2022-11-13T05:12:51.123Z,0.65
2022-11-13T05:13:51.035Z,0.66
2022-11-13T05:14:50.946Z,0.71
2022-11-13T05:15:50.869Z,0.66
2022-11-13T05:16:50.779Z,0.71
2022-11-13T05:17:50.800Z,0.74
2022-11-13T05:18:50.601Z,0.77
2022-11-13T05:19:50.520Z,0.77
2022-11-13T05:20:50.430Z,0.66
2022-11-13T05:21:50.349Z,0.82
2022-11-13T05:22:50.262Z,0.66
2022-11-13T05:23:50.173Z,0.69
2022-11-13T05:24:50.093Z,0.53
2022-11-13T05:25:50.002Z,0.49
2022-11-13T05:26:49.917Z,0.47
2022-11-13T05:27:49.829Z,0.42
2022-11-13T05:28:49.737Z,0.52
2022-11-13T05:29:49.658Z,0.50
2022-11-13T05:30:49.571Z,0.47
2022-11-13T05:31:49.486Z,0.56
2022-11-13T05:32:49.394Z,0.56
2022-11-13T05:33:49.414Z,0.52
2022-11-13T05:34:49.224Z,0.53
2022-11-13T05:35:49.141Z,0.56
2022-11-13T05:36:49.050Z,0.64
2022-11-13T05:37:48.967Z,0.59
2022-11-13T05:38:48.881Z,0.64
2022-11-13T05:39:48.796Z,0.61
2022-11-13T05:40:48.705Z,0.64
2022-11-13T05:41:48.622Z,0.68
2022-11-13T05:42:48.532Z,0.64
2022-11-13T05:43:48.446Z,0.56
2022-11-13T05:44:48.364Z,0.61
2022-11-13T05:45:48.282Z,0.57
2022-11-13T05:46:48.189Z,0.57
2022-11-13T05:47:48.103Z,0.62
2022-11-13T05:48:48.017Z,0.64
2022-11-13T05:49:48.027Z,0.59
2022-11-13T05:50:47.852Z,0.52
2022-11-13T05:51:47.761Z,0.59
2022-11-13T05:52:47.676Z,0.59
2022-11-13T05:53:47.585Z,0.56
2022-11-13T05:54:47.500Z,0.56
2022-11-13T05:55:47.415Z,0.50
2022-11-13T05:56:47.330Z,0.45
2022-11-13T05:57:47.241Z,0.52
2022-11-13T05:58:47.155Z,0.49
2022-11-13T05:59:47.071Z,0.50
2022-11-13T06:00:46.980Z,0.49
2022-11-13T06:01:46.932Z,0.47
2022-11-13T06:02:46.814Z,0.52
2022-11-13T06:03:46.724Z,0.49
2022-11-13T06:04:46.638Z,0.53
2022-11-13T06:05:46.559Z,0.62
2022-11-13T06:06:46.547Z,0.50
2022-11-13T06:07:46.380Z,0.50
2022-11-13T06:08:46.294Z,0.57
2022-11-13T06:09:46.212Z,0.50
2022-11-13T06:10:46.117Z,0.59
2022-11-13T06:11:46.038Z,0.64
2022-11-13T06:12:45.945Z,0.59
2022-11-13T06:13:45.863Z,0.64
2022-11-13T06:14:45.778Z,0.61
2022-11-13T06:15:45.687Z,0.57
2022-11-13T06:16:45.600Z,0.56
2022-11-13T06:17:45.515Z,0.57
2022-11-13T06:18:45.431Z,0.56
2022-11-13T06:19:45.346Z,0.57
2022-11-13T06:20:45.261Z,0.50
2022-11-13T06:21:45.267Z,0.42
2022-11-13T06:22:45.085Z,0.49
2022-11-13T06:23:45.001Z,0.56
2022-11-13T06:24:44.914Z,0.57
2022-11-13T06:25:44.829Z,0.56
2022-11-13T06:26:44.740Z,0.64
2022-11-13T06:27:44.651Z,0.68
2022-11-13T06:28:44.568Z,0.66
2022-11-13T06:29:44.481Z,0.69
2022-11-13T06:30:44.397Z,0.65
2022-11-13T06:31:44.313Z,0.66
2022-11-13T06:32:44.223Z,0.68
2022-11-13T06:33:44.136Z,0.65
2022-11-13T06:34:44.050Z,0.64
2022-11-13T06:35:43.964Z,0.71
2022-11-13T06:36:43.877Z,0.68
2022-11-13T06:37:43.885Z,0.69
2022-11-13T06:38:43.769Z,0.72
2022-11-13T06:39:43.617Z,0.83
2022-11-13T06:40:43.530Z,0.82
2022-11-13T06:41:43.445Z,0.75
2022-11-13T06:42:43.362Z,0.75
2022-11-13T06:43:43.274Z,0.83
2022-11-13T06:44:43.190Z,0.83
2022-11-13T06:45:43.103Z,0.77
2022-11-13T06:46:43.013Z,0.66
2022-11-13T06:47:42.929Z,0.74
2022-11-13T06:48:42.845Z,0.79
2022-11-13T06:49:42.758Z,0.72
2022-11-13T06:50:48.129Z,0.72
2022-11-13T06:51:42.580Z,0.68
2022-11-13T06:52:42.500Z,0.77
2022-11-13T06:53:42.507Z,0.77
2022-11-13T06:54:42.326Z,0.79
2022-11-13T06:55:42.240Z,0.75
2022-11-13T06:56:42.152Z,0.89
2022-11-13T06:57:42.064Z,0.87
2022-11-13T06:58:41.988Z,0.75
2022-11-13T06:59:41.895Z,0.77
2022-11-13T07:00:41.929Z,0.69
2022-11-13T07:01:41.773Z,0.62
2022-11-13T07:02:41.636Z,0.66
2022-11-13T07:03:41.550Z,0.66
2022-11-13T07:04:41.461Z,0.71
2022-11-13T07:05:41.377Z,0.89
2022-11-13T07:06:41.369Z,0.84
2022-11-13T07:07:41.201Z,0.92
2022-11-13T07:08:41.121Z,1.01
2022-11-13T07:09:41.127Z,1.02
2022-11-13T07:10:40.944Z,1.19
2022-11-13T07:11:40.860Z,1.19
2022-11-13T07:12:40.774Z,1.34
2022-11-13T07:13:40.683Z,1.47
2022-11-13T07:14:40.607Z,1.50
2022-11-13T07:15:40.517Z,1.62
2022-11-13T07:17:07.338Z,1.77
2022-11-13T07:17:40.344Z,1.83
2022-11-13T07:18:40.258Z,1.87
2022-11-13T07:19:40.181Z,2.03
2022-11-13T07:20:40.081Z,1.91
2022-11-13T07:21:40.001Z,2.01
2022-11-13T07:22:39.911Z,1.95
2022-11-13T07:23:39.825Z,2.02
2022-11-13T07:24:39.741Z,1.98
2022-11-13T07:25:39.748Z,1.91
2022-11-13T07:26:39.567Z,1.87
2022-11-13T07:27:39.481Z,1.99
2022-11-13T07:28:39.400Z,2.03
2022-11-13T07:29:39.315Z,1.95
2022-11-13T07:30:39.225Z,2.09
2022-11-13T07:31:39.138Z,2.05
2022-11-13T07:32:39.053Z,2.06
2022-11-13T07:33:38.965Z,2.19
2022-11-13T07:34:38.881Z,2.16
2022-11-13T07:35:38.795Z,2.16
2022-11-13T07:36:38.705Z,2.23
2022-11-13T07:37:38.620Z,2.21
2022-11-13T07:38:38.538Z,2.24
2022-11-13T07:39:38.448Z,2.31
2022-11-13T07:40:38.366Z,2.38
2022-11-13T07:41:38.377Z,2.53
2022-11-13T07:42:38.192Z,2.48
2022-11-13T07:43:38.106Z,2.57
2022-11-13T07:44:54.174Z,2.70
2022-11-13T07:45:37.934Z,2.84
2022-11-13T07:46:37.848Z,2.88
2022-11-13T07:47:37.765Z,3.01
2022-11-13T07:48:37.678Z,2.99
2022-11-13T07:49:37.590Z,3.19
2022-11-13T07:50:37.512Z,3.32
2022-11-13T07:51:37.423Z,3.41
2022-11-13T07:52:37.336Z,3.51
2022-11-13T07:53:37.251Z,3.48
2022-11-13T07:54:37.172Z,3.66
2022-11-13T07:55:37.109Z,3.65
2022-11-13T07:56:36.996Z,3.69
2022-11-13T07:57:37.007Z,3.68
2022-11-13T07:58:36.825Z,3.64
2022-11-13T07:59:36.735Z,3.80
2022-11-13T08:00:36.759Z,3.79
2022-11-13T08:01:36.563Z,3.80
2022-11-13T08:02:36.487Z,3.82
2022-11-13T08:03:36.398Z,3.86
2022-11-13T08:04:36.313Z,3.87
2022-11-13T08:05:36.226Z,3.97
2022-11-13T08:06:36.140Z,4.00
2022-11-13T08:07:36.060Z,4.11
2022-11-13T08:08:35.976Z,4.22
2022-11-13T08:09:35.884Z,4.22
2022-11-13T08:10:35.803Z,4.40
2022-11-13T08:11:35.717Z,4.52
2022-11-13T08:12:35.634Z,4.54
2022-11-13T08:13:35.640Z,4.66
2022-11-13T08:14:35.463Z,4.69
2022-11-13T08:15:35.385Z,4.76
2022-11-13T08:16:35.289Z,4.69
2022-11-13T08:17:35.208Z,4.87
2022-11-13T08:18:35.123Z,4.99
2022-11-13T08:19:35.036Z,5.13
2022-11-13T08:20:34.954Z,5.28
2022-11-13T08:21:34.869Z,5.39
2022-11-13T08:22:34.794Z,5.50
2022-11-13T08:23:34.698Z,5.57
2022-11-13T08:24:34.613Z,5.68
2022-11-13T08:25:34.527Z,5.59
2022-11-13T08:26:34.444Z,5.70
2022-11-13T08:27:34.365Z,5.80
2022-11-13T08:28:34.276Z,6.00
2022-11-13T08:29:34.288Z,6.13
2022-11-13T08:30:34.109Z,6.21
2022-11-13T08:31:34.028Z,6.36
2022-11-13T08:32:33.938Z,6.33
2022-11-13T08:33:33.856Z,6.22
2022-11-13T08:34:33.773Z,6.14
2022-11-13T08:35:33.689Z,6.17
2022-11-13T08:36:33.603Z,6.24
2022-11-13T08:37:33.521Z,6.32
2022-11-13T08:38:33.436Z,6.34
2022-11-13T08:39:33.348Z,6.30
2022-11-13T08:40:33.273Z,6.39
2022-11-13T08:41:33.183Z,6.39
2022-11-13T08:42:33.103Z,6.36
2022-11-13T08:43:33.015Z,6.51
2022-11-13T08:44:32.932Z,6.47
2022-11-13T08:45:32.945Z,6.57
2022-11-13T08:46:32.764Z,6.70
2022-11-13T08:47:32.678Z,6.91
2022-11-13T08:48:32.615Z,7.11
2022-11-13T08:49:32.528Z,7.24
2022-11-13T08:50:32.438Z,7.37
2022-11-13T08:51:32.348Z,7.55
2022-11-13T08:52:32.263Z,7.55
2022-11-13T08:53:32.189Z,7.37
2022-11-13T08:54:32.098Z,7.31
2022-11-13T08:55:32.011Z,7.31
2022-11-13T08:56:31.937Z,7.29
2022-11-13T08:57:31.851Z,7.19
2022-11-13T08:58:32.239Z,7.34
2022-11-13T08:59:31.681Z,7.38
2022-11-13T09:00:31.600Z,7.63
2022-11-13T09:01:31.612Z,7.57
2022-11-13T09:02:31.433Z,7.88
2022-11-13T09:03:31.505Z,8.03
2022-11-13T09:04:31.265Z,8.09
2022-11-13T09:05:31.185Z,8.25
2022-11-13T09:06:31.101Z,8.30
2022-11-13T09:07:31.037Z,8.42
2022-11-13T09:08:31.213Z,8.52
2022-11-13T09:09:30.861Z,8.73
2022-11-13T09:10:30.768Z,8.77
2022-11-13T09:11:30.687Z,8.91
2022-11-13T09:12:30.606Z,8.95
2022-11-13T09:13:30.521Z,9.02
2022-11-13T09:14:30.439Z,9.13
2022-11-13T09:15:30.356Z,9.03
2022-11-13T09:16:30.280Z,9.20
2022-11-13T09:17:30.298Z,9.05
2022-11-13T09:18:30.663Z,9.06
2022-11-13T09:19:30.028Z,9.02
2022-11-13T09:20:29.948Z,9.10
2022-11-13T09:21:29.862Z,9.13
2022-11-13T09:22:29.787Z,9.13
2022-11-13T09:23:29.701Z,9.28
2022-11-13T09:24:29.618Z,9.32
2022-11-13T09:25:35.860Z,9.28
2022-11-13T09:26:29.458Z,9.37
2022-11-13T09:27:29.369Z,9.52
2022-11-13T09:28:29.568Z,9.60
2022-11-13T09:29:29.205Z,9.63
2022-11-13T09:30:29.126Z,9.70
2022-11-13T09:31:29.045Z,9.65
2022-11-13T09:32:28.966Z,9.74
2022-11-13T09:33:28.981Z,9.80
2022-11-13T09:34:28.801Z,9.74
2022-11-13T09:35:28.716Z,9.79
2022-11-13T09:36:28.647Z,9.92
2022-11-13T09:37:28.553Z,10.04
2022-11-13T09:38:28.837Z,9.89
2022-11-13T09:39:28.395Z,9.86
2022-11-13T09:40:28.311Z,10.06
2022-11-13T09:41:28.226Z,10.11
2022-11-13T09:42:28.151Z,10.07
2022-11-13T09:43:28.066Z,10.15
2022-11-13T09:44:27.986Z,10.26
2022-11-13T09:45:27.904Z,10.39
2022-11-13T09:46:27.825Z,10.56
2022-11-13T09:47:27.743Z,10.59
2022-11-13T09:48:28.029Z,10.56
2022-11-13T09:49:27.673Z,10.65
2022-11-13T09:50:27.503Z,10.74
2022-11-13T09:51:27.422Z,10.83
2022-11-13T09:52:27.344Z,10.77
2022-11-13T09:53:27.257Z,10.84
2022-11-13T09:54:27.179Z,10.91
2022-11-13T09:55:27.099Z,11.08
2022-11-13T09:56:27.023Z,11.13
2022-11-13T09:57:26.941Z,11.17
2022-11-13T09:58:27.300Z,11.26
2022-11-13T09:59:26.781Z,11.35
2022-11-13T10:00:26.700Z,11.41
2022-11-13T10:01:26.690Z,11.34
2022-11-13T10:02:26.542Z,11.21
2022-11-13T10:03:54.636Z,11.24
2022-11-13T10:04:26.382Z,11.16
2022-11-13T10:05:26.394Z,11.28
2022-11-13T10:06:26.223Z,11.38
2022-11-13T10:07:26.142Z,11.32
2022-11-13T10:08:26.404Z,11.36
2022-11-13T10:09:25.979Z,11.46
2022-11-13T10:10:25.907Z,11.50
2022-11-13T10:11:25.831Z,11.60
2022-11-13T10:12:25.742Z,11.75
2022-11-13T10:13:25.662Z,11.78
2022-11-13T10:14:25.612Z,11.90
2022-11-13T10:15:25.507Z,11.97
2022-11-13T10:16:25.431Z,12.05
2022-11-13T10:17:25.355Z,12.13
2022-11-13T10:18:25.301Z,12.13
2022-11-13T10:19:25.188Z,12.33
2022-11-13T10:20:25.105Z,12.41
2022-11-13T10:21:25.118Z,12.49
2022-11-13T10:22:33.910Z,12.61
2022-11-13T10:23:24.889Z,12.55
2022-11-13T10:24:24.791Z,12.60
2022-11-13T10:25:24.719Z,12.67
2022-11-13T10:26:24.631Z,12.69
2022-11-13T10:27:24.555Z,12.71
2022-11-13T10:28:52.358Z,12.67
2022-11-13T10:29:24.399Z,12.82
2022-11-13T10:30:24.313Z,12.86
2022-11-13T10:31:24.231Z,12.84
2022-11-13T10:32:24.157Z,13.06
2022-11-13T10:33:24.077Z,13.15
2022-11-13T10:34:24.000Z,13.15
2022-11-13T10:35:23.921Z,13.14
2022-11-13T10:36:23.840Z,13.03
2022-11-13T10:37:23.764Z,12.92
2022-11-13T10:38:23.677Z,12.89
2022-11-13T10:39:23.600Z,12.86
2022-11-13T10:40:23.525Z,12.84
2022-11-13T10:41:23.441Z,12.84
2022-11-13T10:42:23.358Z,12.94
2022-11-13T10:43:23.283Z,12.99
2022-11-13T10:44:23.201Z,13.02
2022-11-13T10:45:23.123Z,12.99
2022-11-13T10:46:23.046Z,12.78
2022-11-13T10:47:49.091Z,12.69
2022-11-13T10:48:22.888Z,12.67
2022-11-13T10:49:22.805Z,12.59
2022-11-13T10:50:22.726Z,12.59
2022-11-13T10:51:22.651Z,12.66
2022-11-13T10:52:22.573Z,12.70
2022-11-13T10:53:22.590Z,12.85
2022-11-13T10:54:22.415Z,12.91
2022-11-13T10:55:22.331Z,13.02
2022-11-13T10:56:22.260Z,13.10
2022-11-13T10:57:22.174Z,13.09
2022-11-13T10:58:22.097Z,13.14
2022-11-13T10:59:22.018Z,13.14
2022-11-13T11:00:21.935Z,13.09
2022-11-13T11:01:22.014Z,13.15
2022-11-13T11:02:21.788Z,13.29
2022-11-13T11:03:21.704Z,13.29
2022-11-13T11:04:21.628Z,13.17
2022-11-13T11:05:21.548Z,13.28
2022-11-13T11:06:21.464Z,13.25
2022-11-13T11:07:21.906Z,13.22
2022-11-13T11:08:21.302Z,13.28
2022-11-13T11:09:21.325Z,13.48
2022-11-13T11:10:21.148Z,13.41
2022-11-13T11:11:21.073Z,13.36
2022-11-13T11:12:24.349Z,13.24
2022-11-13T11:13:20.919Z,13.11
2022-11-13T11:14:20.830Z,13.00
2022-11-13T11:15:20.757Z,12.99
2022-11-13T11:16:20.675Z,12.97
2022-11-13T11:17:20.600Z,13.06
2022-11-13T11:18:20.517Z,12.86
2022-11-13T11:19:20.441Z,13.02
2022-11-13T11:20:20.359Z,13.04
2022-11-13T11:21:20.280Z,13.02
2022-11-13T11:22:20.204Z,13.00
2022-11-13T11:23:20.124Z,13.04
2022-11-13T11:24:20.042Z,13.02
2022-11-13T11:25:20.062Z,13.11
2022-11-13T11:26:19.887Z,13.09
2022-11-13T11:27:19.811Z,13.17
2022-11-13T11:28:19.728Z,13.18
2022-11-13T11:29:19.651Z,13.33
2022-11-13T11:30:19.574Z,13.37
2022-11-13T11:31:19.503Z,13.45
2022-11-13T11:32:19.413Z,13.44
2022-11-13T11:33:19.337Z,13.58
2022-11-13T11:34:19.261Z,13.73
2022-11-13T11:35:19.183Z,13.77
2022-11-13T11:36:19.102Z,13.81
2022-11-13T11:37:19.025Z,13.83
2022-11-13T11:38:18.944Z,13.83
2022-11-13T11:39:18.866Z,13.87
2022-11-13T11:40:18.789Z,13.96
2022-11-13T11:41:18.814Z,14.03
2022-11-13T11:42:18.629Z,14.10
2022-11-13T11:43:18.553Z,14.14
2022-11-13T11:44:18.475Z,14.17
2022-11-13T11:45:18.396Z,14.29
2022-11-13T11:46:18.316Z,14.35
2022-11-13T11:47:18.244Z,14.36
2022-11-13T11:48:18.157Z,14.47
2022-11-13T11:49:18.085Z,14.47
2022-11-13T11:50:18.002Z,14.32
2022-11-13T11:51:17.925Z,14.35
2022-11-13T11:52:17.849Z,14.46
2022-11-13T11:53:17.769Z,14.44
2022-11-13T11:54:17.692Z,14.39
2022-11-13T11:55:17.619Z,14.52
2022-11-13T11:56:17.534Z,14.56
2022-11-13T11:57:17.556Z,14.65
2022-11-13T11:58:17.386Z,14.64
2022-11-13T11:59:17.297Z,14.72
2022-11-13T12:00:17.227Z,14.61
2022-11-13T12:01:17.145Z,14.68
2022-11-13T12:02:17.065Z,14.61
2022-11-13T12:03:16.992Z,14.71
2022-11-13T12:04:16.912Z,14.60
2022-11-13T12:05:19.877Z,14.64
2022-11-13T12:06:16.755Z,14.69
2022-11-13T12:07:16.722Z,14.84
2022-11-13T12:08:16.599Z,14.88
2022-11-13T12:09:16.519Z,14.84
2022-11-13T12:10:16.440Z,14.87
2022-11-13T12:11:16.365Z,14.95
2022-11-13T12:12:16.286Z,14.91
2022-11-13T12:13:16.304Z,15.06
2022-11-13T12:14:16.130Z,15.13
2022-11-13T12:15:16.052Z,15.21
2022-11-13T12:16:18.790Z,15.15
2022-11-13T12:17:17.412Z,15.27
2022-11-13T12:18:15.819Z,15.41
2022-11-13T12:19:15.742Z,15.49
2022-11-13T12:20:15.661Z,15.42
2022-11-13T12:21:15.586Z,15.38
2022-11-13T12:22:15.506Z,15.46
2022-11-13T12:23:15.425Z,15.34
2022-11-13T12:24:15.351Z,15.39
2022-11-13T12:25:15.271Z,15.38
2022-11-13T12:26:15.200Z,15.49
2022-11-13T12:27:15.115Z,15.46
2022-11-13T12:28:15.037Z,15.48
2022-11-13T12:29:15.060Z,15.51
2022-11-13T12:30:14.882Z,15.61
2022-11-13T12:31:14.803Z,15.76
2022-11-13T12:32:14.731Z,15.67
2022-11-13T12:33:14.654Z,15.70
2022-11-13T12:34:14.571Z,15.70
2022-11-13T12:35:14.497Z,15.78
2022-11-13T12:36:14.418Z,15.79
2022-11-13T12:37:14.339Z,15.81
2022-11-13T12:38:14.263Z,15.79
2022-11-13T12:39:14.185Z,15.88
2022-11-13T12:40:14.109Z,15.81
2022-11-13T12:41:14.028Z,15.88
2022-11-13T12:42:13.952Z,15.82
2022-11-13T12:43:13.877Z,15.85
2022-11-13T12:44:13.802Z,16.00
2022-11-13T12:45:13.831Z,16.00
2022-11-13T12:46:13.641Z,16.04
2022-11-13T12:47:13.567Z,16.03
2022-11-13T12:48:13.490Z,16.00
2022-11-13T12:49:13.406Z,15.97
2022-11-13T12:50:13.339Z,16.03
2022-11-13T12:51:13.254Z,16.12
2022-11-13T12:52:13.177Z,16.14
2022-11-13T12:53:13.102Z,16.08
2022-11-13T12:54:13.025Z,16.07
2022-11-13T12:55:12.944Z,16.10
2022-11-13T12:56:12.869Z,16.07
2022-11-13T12:57:12.793Z,16.10
2022-11-13T12:58:12.717Z,16.20
2022-11-13T12:59:41.304Z,16.25
2022-11-13T13:00:12.558Z,16.20
2022-11-13T13:01:12.633Z,16.22
2022-11-13T13:02:12.402Z,16.20
2022-11-13T13:03:12.327Z,16.18
2022-11-13T13:04:12.248Z,16.16
2022-11-13T13:05:12.174Z,16.14
2022-11-13T13:06:12.111Z,16.20
2022-11-13T13:07:12.047Z,16.40
2022-11-13T13:08:11.939Z,16.23
2022-11-13T13:09:11.866Z,16.18
2022-11-13T13:10:11.795Z,16.26